createdAt,value
2017-06-19T00:00:49.881Z,72.75
2017-06-19T00:01:58.840Z,73.05
2017-06-19T00:03:07.806Z,73.53
2017-06-19T00:04:16.766Z,73.33
2017-06-19T00:05:25.860Z,73.24
2017-06-19T00:06:34.823Z,73.33
2017-06-19T00:07:43.783Z,73.14
2017-06-19T00:08:52.741Z,73.24
2017-06-19T00:10:01.696Z,73.33
2017-06-19T00:11:10.740Z,73.33
2017-06-19T00:12:19.697Z,73.24
2017-06-19T00:13:28.653Z,73.33
2017-06-19T00:14:37.610Z,73.53
2017-06-19T00:15:46.657Z,73.24
2017-06-19T00:16:55.624Z,73.72
2017-06-19T00:18:04.670Z,73.53
2017-06-19T00:19:13.631Z,73.33
2017-06-19T00:20:22.595Z,73.43
2017-06-19T00:21:31.551Z,73.72
2017-06-19T00:22:40.559Z,73.91
2017-06-19T00:23:49.516Z,73.72
2017-06-19T00:24:58.476Z,74.01
2017-06-19T00:26:07.435Z,74.1
2017-06-19T00:27:16.405Z,73.91
2017-06-19T00:28:25.418Z,74.01
2017-06-19T00:29:34.380Z,73.78
2017-06-19T00:30:43.662Z,73.88
2017-06-19T00:31:52.621Z,74.01
2017-06-19T00:33:01.577Z,73.91
2017-06-19T00:34:10.586Z,73.97
2017-06-19T00:35:19.551Z,73.88
2017-06-19T00:36:28.515Z,73.88
2017-06-19T00:37:37.477Z,73.88
2017-06-19T00:38:46.433Z,73.49
2017-06-19T00:39:55.393Z,74.26
2017-06-19T00:41:04.351Z,73.88
2017-06-19T00:42:13.312Z,74.07
2017-06-19T00:43:22.280Z,73.88
2017-06-19T00:44:31.239Z,74.16
2017-06-19T00:45:40.372Z,74.26
2017-06-19T00:46:49.334Z,74.65
2017-06-19T00:47:58.294Z,74.36
2017-06-19T00:49:07.254Z,74.36
2017-06-19T00:50:16.215Z,74.45
2017-06-19T00:51:25.312Z,74.55
2017-06-19T00:52:34.269Z,74.45
2017-06-19T00:53:43.232Z,74.84
2017-06-19T00:54:52.185Z,74.45
2017-06-19T00:56:01.178Z,74.26
2017-06-19T00:57:10.140Z,74.45
2017-06-19T00:58:19.100Z,74.55
2017-06-19T00:59:28.056Z,74.36
2017-06-19T01:00:37.015Z,74.55
2017-06-19T01:01:45.973Z,74.36
2017-06-19T01:02:54.983Z,74.36
2017-06-19T01:04:03.946Z,74.55
2017-06-19T01:05:12.990Z,74.65
2017-06-19T01:06:21.948Z,75.13
2017-06-19T01:07:30.908Z,74.93
2017-06-19T01:08:40.003Z,75.03
2017-06-19T01:09:48.959Z,75.13
2017-06-19T01:10:57.915Z,75.32
2017-06-19T01:12:06.874Z,75.03
2017-06-19T01:13:16.161Z,74.8
2017-06-19T01:14:25.176Z,74.71
2017-06-19T01:15:34.139Z,75.13
2017-06-19T01:16:43.190Z,75.38
2017-06-19T01:17:52.146Z,75.42
2017-06-19T01:19:01.102Z,75.51
2017-06-19T01:20:10.106Z,75.28
2017-06-19T01:21:19.065Z,75.51
2017-06-19T01:22:28.025Z,75.32
2017-06-19T01:23:36.982Z,75.42
2017-06-19T01:24:45.942Z,75.19
2017-06-19T01:25:54.958Z,74.99
2017-06-19T01:27:03.922Z,75.19
2017-06-19T01:28:12.882Z,75.28
2017-06-19T01:29:21.842Z,74.9
2017-06-19T01:30:30.798Z,75.38
2017-06-19T01:31:39.806Z,75.28
2017-06-19T01:32:49.090Z,75.38
2017-06-19T01:33:58.048Z,75.38
2017-06-19T01:35:07.004Z,75.32
2017-06-19T01:36:15.962Z,75.48
2017-06-19T01:37:24.965Z,75.42
2017-06-19T01:38:33.929Z,75.38
2017-06-19T01:39:42.887Z,75.28
2017-06-19T01:40:51.843Z,75.48
2017-06-19T01:42:00.803Z,75.86
2017-06-19T01:43:09.813Z,75.96
2017-06-19T01:44:18.771Z,75.96
2017-06-19T01:45:27.733Z,75.96
2017-06-19T01:46:36.695Z,75.76
2017-06-19T01:47:45.655Z,75.76
2017-06-19T01:48:54.663Z,75.76
2017-06-19T01:50:03.623Z,75.67
2017-06-19T01:51:12.581Z,75.76
2017-06-19T01:52:21.540Z,75.96
2017-06-19T01:53:30.821Z,76.15
2017-06-19T01:54:39.826Z,76.34
2017-06-19T01:55:48.873Z,76.34
2017-06-19T01:56:57.836Z,76.06
2017-06-19T01:58:06.798Z,76.44
2017-06-19T01:59:15.758Z,76.25
2017-06-19T02:00:24.766Z,76.06
2017-06-19T02:01:33.723Z,76.06
2017-06-19T02:02:42.682Z,76.25
2017-06-19T02:03:51.646Z,76.06
2017-06-19T02:05:00.606Z,76.44
2017-06-19T02:06:09.568Z,76.53
2017-06-19T02:07:18.532Z,76.34
2017-06-19T02:08:27.487Z,76.44
2017-06-19T02:09:36.462Z,76.34
2017-06-19T02:10:45.423Z,76.34
2017-06-19T02:11:54.383Z,76.53
2017-06-19T02:13:03.342Z,76.73
2017-06-19T02:14:12.301Z,76.53
2017-06-19T02:15:21.260Z,76.73
2017-06-19T02:16:30.215Z,77.01
2017-06-19T02:17:39.177Z,76.92
2017-06-19T02:18:48.134Z,76.63
2017-06-19T02:19:57.091Z,76.82
2017-06-19T02:21:06.044Z,76.63
2017-06-19T02:22:15.008Z,76.53
2017-06-19T02:23:23.971Z,77.01
2017-06-19T02:24:32.933Z,77.01
2017-06-19T02:25:41.894Z,77.01
2017-06-19T02:26:50.851Z,77.08
2017-06-19T02:27:59.899Z,77.26
2017-06-19T02:29:08.910Z,77.08
2017-06-19T02:30:17.871Z,77.08
2017-06-19T02:31:26.829Z,77.11
2017-06-19T02:32:36.121Z,77.08
2017-06-19T02:33:45.082Z,77.08
2017-06-19T02:34:54.095Z,77.08
2017-06-19T02:36:03.055Z,77.17
2017-06-19T02:37:12.012Z,76.98
2017-06-19T02:38:21.058Z,77.21
2017-06-19T02:39:30.024Z,76.98
2017-06-19T02:40:39.036Z,77.21
2017-06-19T02:41:47.994Z,77.56
2017-06-19T02:42:56.961Z,77.26
2017-06-19T02:44:05.923Z,77.08
2017-06-19T02:45:14.881Z,77.17
2017-06-19T02:46:23.887Z,77.26
2017-06-19T02:47:32.845Z,77.08
2017-06-19T02:48:41.889Z,77.17
2017-06-19T02:49:50.933Z,77.08
2017-06-19T02:50:59.887Z,77.17
2017-06-19T02:52:08.897Z,77.08
2017-06-19T02:53:17.856Z,77.08
2017-06-19T02:54:26.907Z,77.84
2017-06-19T02:55:35.867Z,77.36
2017-06-19T02:56:44.824Z,77.17
2017-06-19T02:57:53.785Z,77.21
2017-06-19T02:59:02.739Z,77.75
2017-06-19T03:00:11.698Z,77.65
2017-06-19T03:01:20.659Z,76.88
2017-06-19T03:02:29.614Z,77.08
2017-06-19T03:03:38.574Z,76.78
2017-06-19T03:04:47.531Z,77.36
2017-06-19T03:05:56.491Z,77.36
2017-06-19T03:07:05.449Z,77.17
2017-06-19T03:08:14.408Z,77.17
2017-06-19T03:09:23.413Z,77.26
2017-06-19T03:10:32.371Z,77.46
2017-06-19T03:11:41.416Z,77.36
2017-06-19T03:12:50.376Z,77.36
2017-06-19T03:13:59.337Z,77.65
2017-06-19T03:15:08.349Z,77.65
2017-06-19T03:16:17.307Z,77.56
2017-06-19T03:17:26.360Z,77.65
2017-06-19T03:18:35.322Z,78.13
2017-06-19T03:19:44.281Z,78.03
2017-06-19T03:20:53.285Z,77.56
2017-06-19T03:22:02.245Z,77.65
2017-06-19T03:23:11.210Z,77.84
2017-06-19T03:24:20.165Z,77.84
2017-06-19T03:25:29.120Z,77.94
2017-06-19T03:26:38.211Z,77.65
2017-06-19T03:27:47.170Z,77.65
2017-06-19T03:28:56.124Z,77.65
2017-06-19T03:30:05.085Z,77.56
2017-06-19T03:31:14.043Z,77.65
2017-06-19T03:32:23.009Z,78.03
2017-06-19T03:33:31.969Z,77.75
2017-06-19T03:34:41.253Z,77.94
2017-06-19T03:35:50.209Z,78.13
2017-06-19T03:36:59.169Z,77.94
2017-06-19T03:38:08.177Z,77.94
2017-06-19T03:39:17.135Z,77.84
2017-06-19T03:40:26.092Z,77.84
2017-06-19T03:41:35.046Z,77.65
2017-06-19T03:42:44.006Z,77.84
2017-06-19T03:43:53.012Z,78.03
2017-06-19T03:45:01.966Z,77.94
2017-06-19T03:46:10.926Z,77.56
2017-06-19T03:47:19.884Z,77.46
2017-06-19T03:48:28.843Z,77.46
2017-06-19T03:49:37.856Z,77.01
2017-06-19T03:50:46.822Z,77.21
2017-06-19T03:51:56.102Z,77.11
2017-06-19T03:53:05.061Z,77.26
2017-06-19T03:54:14.018Z,77.46
2017-06-19T03:55:22.975Z,77.46
2017-06-19T03:56:31.939Z,77.46
2017-06-19T03:57:40.900Z,77.26
2017-06-19T03:58:49.857Z,77.36
2017-06-19T03:59:59.138Z,77.46
2017-06-19T04:01:08.186Z,77.26
2017-06-19T04:02:17.145Z,77.4
2017-06-19T04:03:26.103Z,77.31
2017-06-19T04:04:35.096Z,77.21
2017-06-19T04:05:44.052Z,77.21
2017-06-19T04:06:53.266Z,77.01
2017-06-19T04:08:02.226Z,77.21
2017-06-19T04:09:11.188Z,77.31
2017-06-19T04:10:20.150Z,77.21
2017-06-19T04:11:29.161Z,77.01
2017-06-19T04:12:38.487Z,76.82
2017-06-19T04:13:47.442Z,77.11
2017-06-19T04:14:56.401Z,77.59
2017-06-19T04:16:05.359Z,77.21
2017-06-19T04:17:14.320Z,77.5
2017-06-19T04:18:23.327Z,77.4
2017-06-19T04:19:32.288Z,77.11
2017-06-19T04:20:41.244Z,76.82
2017-06-19T04:21:50.204Z,77.01
2017-06-19T04:22:59.253Z,77.21
2017-06-19T04:24:08.536Z,77.01
2017-06-19T04:25:17.495Z,77.21
2017-06-19T04:26:26.449Z,77.21
2017-06-19T04:27:35.413Z,77.21
2017-06-19T04:28:44.375Z,77.21
2017-06-19T04:29:53.375Z,76.63
2017-06-19T04:31:02.419Z,76.92
2017-06-19T04:32:11.417Z,76.92
2017-06-19T04:33:20.389Z,76.96
2017-06-19T04:34:29.352Z,76.67
2017-06-19T04:35:38.309Z,76.92
2017-06-19T04:36:47.277Z,76.53
2017-06-19T04:37:56.246Z,76.67
2017-06-19T04:39:05.205Z,76.76
2017-06-19T04:40:14.166Z,76.82
2017-06-19T04:41:23.126Z,76.96
2017-06-19T04:42:32.079Z,76.57
2017-06-19T04:43:41.040Z,76.76
2017-06-19T04:44:50.003Z,76.28
2017-06-19T04:45:58.964Z,76.57
2017-06-19T04:47:07.925Z,75.99
2017-06-19T04:48:16.919Z,76.38
2017-06-19T04:49:25.877Z,75.99
2017-06-19T04:50:34.834Z,76.18
2017-06-19T04:51:43.792Z,76.18
2017-06-19T04:52:52.803Z,76.57
2017-06-19T04:54:01.774Z,76.48
2017-06-19T04:55:10.730Z,76.28
2017-06-19T04:56:19.729Z,76.48
2017-06-19T04:57:28.687Z,76.28
2017-06-19T04:58:37.697Z,75.8
2017-06-19T04:59:47.307Z,75.8
2017-06-19T05:00:56.273Z,75.99
2017-06-19T05:02:05.231Z,75.9
2017-06-19T05:03:14.193Z,75.61
2017-06-19T05:04:23.155Z,75.51
2017-06-19T05:05:32.114Z,75.42
2017-06-19T05:06:41.108Z,75.51
2017-06-19T05:07:50.077Z,75.26
2017-06-19T05:08:59.036Z,75.45
2017-06-19T05:10:08.116Z,75.13
2017-06-19T05:11:17.082Z,75.26
2017-06-19T05:12:26.042Z,75.55
2017-06-19T05:13:35.000Z,75.45
2017-06-19T05:14:43.954Z,75.07
2017-06-19T05:15:52.968Z,75.36
2017-06-19T05:17:01.930Z,75.74
2017-06-19T05:18:10.889Z,75.65
2017-06-19T05:19:19.844Z,75.45
2017-06-19T05:20:28.806Z,75.36
2017-06-19T05:21:37.765Z,75.16
2017-06-19T05:22:46.725Z,75.07
2017-06-19T05:23:55.772Z,75.16
2017-06-19T05:25:04.734Z,75.55
2017-06-19T05:26:13.784Z,75.74
2017-06-19T05:27:22.792Z,75.16
2017-06-19T05:28:32.079Z,75.45
2017-06-19T05:29:41.126Z,74.97
2017-06-19T05:30:50.086Z,75.2
2017-06-19T05:31:59.044Z,74.91
2017-06-19T05:33:08.002Z,74.82
2017-06-19T05:34:16.964Z,74.91
2017-06-19T05:35:25.925Z,74.72
2017-06-19T05:36:34.891Z,74.62
2017-06-19T05:37:43.853Z,74.43
2017-06-19T05:38:52.860Z,74.52
2017-06-19T05:40:01.819Z,74.62
2017-06-19T05:41:10.779Z,74.62
2017-06-19T05:42:19.742Z,74.52
2017-06-19T05:43:28.701Z,74.24
2017-06-19T05:44:37.798Z,73.85
2017-06-19T05:45:46.762Z,74.18
2017-06-19T05:46:55.764Z,74.08
2017-06-19T05:48:04.733Z,74.14
2017-06-19T05:49:13.779Z,73.99
2017-06-19T05:50:22.789Z,73.89
2017-06-19T05:51:31.753Z,73.41
2017-06-19T05:52:40.709Z,73.5
2017-06-19T05:53:49.669Z,73.5
2017-06-19T05:54:58.803Z,73.79
2017-06-19T05:56:07.764Z,73.5
2017-06-19T05:57:16.727Z,73.31
2017-06-19T05:58:25.693Z,73.6
2017-06-19T05:59:34.663Z,73.11
2017-06-19T06:00:43.625Z,73.02
2017-06-19T06:01:52.589Z,72.83
2017-06-19T06:03:01.556Z,72.83
2017-06-19T06:04:10.841Z,72.34
2017-06-19T06:05:19.796Z,72.67
2017-06-19T06:06:28.759Z,71.9
2017-06-19T06:07:37.773Z,72.09
2017-06-19T06:08:46.747Z,72.09
2017-06-19T06:09:55.706Z,71.9
2017-06-19T06:11:04.672Z,71.7
2017-06-19T06:12:13.630Z,71.61
2017-06-19T06:13:22.590Z,71.8
2017-06-19T06:14:31.551Z,71.12
2017-06-19T06:15:40.525Z,71.32
2017-06-19T06:16:49.539Z,71.32
2017-06-19T06:17:58.507Z,70.84
2017-06-19T06:19:07.465Z,70.54
2017-06-19T06:20:16.428Z,71.22
2017-06-19T06:21:25.395Z,70.64
2017-06-19T06:22:34.355Z,70.54
2017-06-19T06:23:43.326Z,70.36
2017-06-19T06:24:52.336Z,70.26
2017-06-19T06:26:01.295Z,70.58
2017-06-19T06:27:10.258Z,70.2
2017-06-19T06:28:19.312Z,69.62
2017-06-19T06:29:28.273Z,69.52
2017-06-19T06:30:37.281Z,69.13
2017-06-19T06:31:46.237Z,68.94
2017-06-19T06:32:55.295Z,69.07
2017-06-19T06:34:04.268Z,69.17
2017-06-19T06:35:13.228Z,68.88
2017-06-19T06:36:22.244Z,68.78
2017-06-19T06:37:31.206Z,68.17
2017-06-19T06:38:40.168Z,68.46
2017-06-19T06:39:49.126Z,68.49
2017-06-19T06:40:58.084Z,68.3
2017-06-19T06:42:07.046Z,68.59
2017-06-19T06:43:16.007Z,68.49
2017-06-19T06:44:24.968Z,68.2
2017-06-19T06:45:33.934Z,67.72
2017-06-19T06:46:42.897Z,68.01
2017-06-19T06:47:51.954Z,67.43
2017-06-19T06:49:00.918Z,67.33
2017-06-19T06:50:09.882Z,67.33
2017-06-19T06:51:18.845Z,67.33
2017-06-19T06:52:27.808Z,67.24
2017-06-19T06:53:36.825Z,67.24
2017-06-19T06:54:45.793Z,67.72
2017-06-19T06:55:54.756Z,67.43
2017-06-19T06:57:03.806Z,67.43
2017-06-19T06:58:12.764Z,67.33
2017-06-19T06:59:21.774Z,67.24
2017-06-19T07:00:30.733Z,66.85
2017-06-19T07:01:39.690Z,66.75
2017-06-19T07:02:48.692Z,66.75
2017-06-19T07:03:57.652Z,66.17
2017-06-19T07:05:06.986Z,65.78
2017-06-19T07:06:15.954Z,65.4
2017-06-19T07:07:25.240Z,65.14
2017-06-19T07:08:34.285Z,65.24
2017-06-19T07:09:43.245Z,64.95
2017-06-19T07:10:52.290Z,64.76
2017-06-19T07:12:01.249Z,64.27
2017-06-19T07:13:10.207Z,64.08
2017-06-19T07:14:19.162Z,64.27
2017-06-19T07:15:28.209Z,64.08
2017-06-19T07:16:37.171Z,63.79
2017-06-19T07:17:46.138Z,64.27
2017-06-19T07:18:55.100Z,64.08
2017-06-19T07:20:04.062Z,63.89
2017-06-19T07:21:13.022Z,63.21
2017-06-19T07:22:22.286Z,63.5
2017-06-19T07:23:31.338Z,63.53
2017-06-19T07:24:40.299Z,63.5
2017-06-19T07:25:49.342Z,63.73
2017-06-19T07:26:58.306Z,63.14
2017-06-19T07:28:07.526Z,63.14
2017-06-19T07:29:16.490Z,63.24
2017-06-19T07:30:25.454Z,63.14
2017-06-19T07:31:34.416Z,63.05
2017-06-19T07:32:43.378Z,62.76
2017-06-19T07:33:52.589Z,62.76
2017-06-19T07:35:01.550Z,62.66
2017-06-19T07:36:10.512Z,62.56
2017-06-19T07:37:19.472Z,62.47
2017-06-19T07:38:28.434Z,62.76
2017-06-19T07:39:37.695Z,62.95
2017-06-19T07:40:46.656Z,62.95
2017-06-19T07:41:55.619Z,62.76
2017-06-19T07:43:04.578Z,62.76
2017-06-19T07:44:13.538Z,63.05
2017-06-19T07:45:23.130Z,62.76
2017-06-19T07:46:32.091Z,62.85
2017-06-19T07:47:41.053Z,62.95
2017-06-19T07:48:50.015Z,63.05
2017-06-19T07:49:59.066Z,62.76
2017-06-19T07:51:08.275Z,62.66
2017-06-19T07:52:17.236Z,62.47
2017-06-19T07:53:26.194Z,62.08
2017-06-19T07:54:35.175Z,61.69
2017-06-19T07:55:44.137Z,61.5
2017-06-19T07:56:53.490Z,61.6
2017-06-19T07:58:02.449Z,61.4
2017-06-19T07:59:11.419Z,61.21
2017-06-19T08:00:20.380Z,61.4
2017-06-19T08:01:29.344Z,61.5
2017-06-19T08:02:38.557Z,61.33
2017-06-19T08:03:47.841Z,61.15
2017-06-19T08:04:56.799Z,61.15
2017-06-19T08:06:05.764Z,61.05
2017-06-19T08:07:14.729Z,61.24
2017-06-19T08:08:23.947Z,61.24
2017-06-19T08:09:32.910Z,60.57
2017-06-19T08:10:41.875Z,60.27
2017-06-19T08:11:51.166Z,60.11
2017-06-19T08:13:00.124Z,60.21
2017-06-19T08:14:09.334Z,59.63
2017-06-19T08:15:18.293Z,59.43
2017-06-19T08:16:27.261Z,59.27
2017-06-19T08:17:36.227Z,58.59
2017-06-19T08:18:45.200Z,58.39
2017-06-19T08:19:54.450Z,58.39
2017-06-19T08:21:03.411Z,58.59
2017-06-19T08:22:12.371Z,58.37
2017-06-19T08:23:21.337Z,58.3
2017-06-19T08:24:30.300Z,57.69
2017-06-19T08:25:39.513Z,57.91
2017-06-19T08:26:48.476Z,58.11
2017-06-19T08:27:57.442Z,58.3
2017-06-19T08:29:06.410Z,57.71
2017-06-19T08:30:15.408Z,57.71
2017-06-19T08:31:24.627Z,57.71
2017-06-19T08:32:33.601Z,57.71
2017-06-19T08:33:42.569Z,57.23
2017-06-19T08:34:51.537Z,56.75
2017-06-19T08:36:00.675Z,56.2
2017-06-19T08:37:10.262Z,55.81
2017-06-19T08:38:19.223Z,55.81
2017-06-19T08:39:28.183Z,55.9
2017-06-19T08:40:37.148Z,55.62
2017-06-19T08:41:46.107Z,55.32
2017-06-19T08:42:55.319Z,55.32
2017-06-19T08:44:04.611Z,55.22
2017-06-19T08:45:13.575Z,55.13
2017-06-19T08:46:22.537Z,55.06
2017-06-19T08:47:31.535Z,54.48
2017-06-19T08:48:40.744Z,54.38
2017-06-19T08:49:49.703Z,54.58
2017-06-19T08:50:58.665Z,54.58
2017-06-19T08:52:07.628Z,54.67
2017-06-19T08:53:16.597Z,54.48
2017-06-19T08:54:25.808Z,54.38
2017-06-19T08:55:34.858Z,54.21
2017-06-19T08:56:43.826Z,53.92
2017-06-19T08:57:53.114Z,53.53
2017-06-19T08:59:02.076Z,54.11
2017-06-19T09:00:11.341Z,53.92
2017-06-19T09:01:20.305Z,53.83
2017-06-19T09:02:29.273Z,53.83
2017-06-19T09:03:38.291Z,53.34
2017-06-19T09:04:47.582Z,53.17
2017-06-19T09:05:56.845Z,53.05
2017-06-19T09:07:05.808Z,53.08
2017-06-19T09:08:14.855Z,52.98
2017-06-19T09:09:23.821Z,53.24
2017-06-19T09:10:32.789Z,53.15
2017-06-19T09:11:42.051Z,53.27
2017-06-19T09:12:51.017Z,53.27
2017-06-19T09:13:59.980Z,53.17
2017-06-19T09:15:08.947Z,53.27
2017-06-19T09:16:17.909Z,53.37
2017-06-19T09:17:27.462Z,53.17
2017-06-19T09:18:36.466Z,53.15
2017-06-19T09:19:45.429Z,53.44
2017-06-19T09:20:54.736Z,53.24
2017-06-19T09:22:03.712Z,53.24
2017-06-19T09:23:12.989Z,52.76
2017-06-19T09:24:21.949Z,52.95
2017-06-19T09:25:30.910Z,53.15
2017-06-19T09:26:39.879Z,54.02
2017-06-19T09:27:48.861Z,53.83
2017-06-19T09:28:58.125Z,52.28
2017-06-19T09:30:07.086Z,52.18
2017-06-19T09:31:16.048Z,51.59
2017-06-19T09:32:25.010Z,51.5
2017-06-19T09:33:33.977Z,51.69
2017-06-19T09:34:43.197Z,51.89
2017-06-19T09:35:52.182Z,51.89
2017-06-19T09:37:01.472Z,52.28
2017-06-19T09:38:10.439Z,52.28
2017-06-19T09:39:19.413Z,52.01
2017-06-19T09:40:28.683Z,52.4
2017-06-19T09:41:37.652Z,52.3
2017-06-19T09:42:46.614Z,52.69
2017-06-19T09:43:55.574Z,52.78
2017-06-19T09:45:04.540Z,52.88
2017-06-19T09:46:13.752Z,52.01
2017-06-19T09:47:23.036Z,51.72
2017-06-19T09:48:32.008Z,51.81
2017-06-19T09:49:40.966Z,52.4
2017-06-19T09:50:49.931Z,51.91
2017-06-19T09:51:59.143Z,52.01
2017-06-19T09:53:08.108Z,51.14
2017-06-19T09:54:17.066Z,52.01
2017-06-19T09:55:26.032Z,51.26
2017-06-19T09:56:35.001Z,51.23
2017-06-19T09:57:44.222Z,52.03
2017-06-19T09:58:53.188Z,51.65
2017-06-19T10:00:02.155Z,51.26
2017-06-19T10:01:11.441Z,51.45
2017-06-19T10:02:20.409Z,50.87
2017-06-19T10:03:29.682Z,50.77
2017-06-19T10:04:38.647Z,50.94
2017-06-19T10:05:47.607Z,49.49
2017-06-19T10:06:56.575Z,49.1
2017-06-19T10:08:05.542Z,49.71
2017-06-19T10:09:14.754Z,49.41
2017-06-19T10:10:23.713Z,49.51
2017-06-19T10:11:32.682Z,49.71
2017-06-19T10:12:41.654Z,49.61
2017-06-19T10:13:50.618Z,50.09
2017-06-19T10:14:59.839Z,49.9
2017-06-19T10:16:09.126Z,49.9
2017-06-19T10:17:18.094Z,50.09
2017-06-19T10:18:27.065Z,50.09
2017-06-19T10:19:36.037Z,49.8
2017-06-19T10:20:45.576Z,49.71
2017-06-19T10:21:54.883Z,50.29
2017-06-19T10:23:03.847Z,50.58
2017-06-19T10:24:12.830Z,50.74
2017-06-19T10:25:21.806Z,51.72
2017-06-19T10:26:31.023Z,51.5
2017-06-19T10:27:39.984Z,51.79
2017-06-19T10:28:48.947Z,51.89
2017-06-19T10:29:57.912Z,52.18
2017-06-19T10:31:06.883Z,52.08
2017-06-19T10:32:16.147Z,52.08
2017-06-19T10:33:25.115Z,51.98
2017-06-19T10:34:34.090Z,51.69
2017-06-19T10:35:43.060Z,51.59
2017-06-19T10:36:52.036Z,51.62
2017-06-19T10:38:01.628Z,51.14
2017-06-19T10:39:10.914Z,51.43
2017-06-19T10:40:19.881Z,51.11
2017-06-19T10:41:28.846Z,51.4
2017-06-19T10:42:38.145Z,51.5
2017-06-19T10:43:47.409Z,51.59
2017-06-19T10:44:56.374Z,51.33
2017-06-19T10:46:05.679Z,51.79
2017-06-19T10:47:14.641Z,51.62
2017-06-19T10:48:23.605Z,51.81
2017-06-19T10:49:32.870Z,51.33
2017-06-19T10:50:41.834Z,51.53
2017-06-19T10:51:50.881Z,51.53
2017-06-19T10:52:59.848Z,51.14
2017-06-19T10:54:08.809Z,50.87
2017-06-19T10:55:18.021Z,50.87
2017-06-19T10:56:26.988Z,50.68
2017-06-19T10:57:35.963Z,49.22
2017-06-19T10:58:44.926Z,48.83
2017-06-19T10:59:54.207Z,49.02
2017-06-19T11:01:03.428Z,48.83
2017-06-19T11:02:12.394Z,48.73
2017-06-19T11:03:21.354Z,48.93
2017-06-19T11:04:30.313Z,48.83
2017-06-19T11:05:39.276Z,48.93
2017-06-19T11:06:48.815Z,48.85
2017-06-19T11:07:57.776Z,48.18
2017-06-19T11:09:06.735Z,48.57
2017-06-19T11:10:15.698Z,48.57
2017-06-19T11:11:24.662Z,48.57
2017-06-19T11:12:33.925Z,48.57
2017-06-19T11:13:42.889Z,48.68
2017-06-19T11:14:51.850Z,48.95
2017-06-19T11:16:00.814Z,48.68
2017-06-19T11:17:09.775Z,48.49
2017-06-19T11:18:18.987Z,48.3
2017-06-19T11:19:27.948Z,48.2
2017-06-19T11:20:36.918Z,48.2
2017-06-19T11:21:45.882Z,47.81
2017-06-19T11:22:54.850Z,48
2017-06-19T11:24:04.123Z,47.13
2017-06-19T11:25:13.177Z,47.03
2017-06-19T11:26:22.159Z,47.13
2017-06-19T11:27:31.124Z,46.94
2017-06-19T11:28:40.086Z,47.42
2017-06-19T11:29:49.300Z,46.84
2017-06-19T11:30:58.261Z,46.86
2017-06-19T11:32:07.229Z,46.96
2017-06-19T11:33:16.514Z,46.84
2017-06-19T11:34:25.473Z,46.86
2017-06-19T11:35:34.742Z,46.96
2017-06-19T11:36:43.707Z,46.47
2017-06-19T11:37:52.672Z,45.79
2017-06-19T11:39:01.636Z,45.69
2017-06-19T11:40:10.598Z,45.5
2017-06-19T11:41:19.816Z,45.69
2017-06-19T11:42:28.777Z,45.69
2017-06-19T11:43:37.744Z,45.69
2017-06-19T11:44:46.708Z,45.79
2017-06-19T11:45:55.679Z,45.6
2017-06-19T11:47:04.945Z,45.6
2017-06-19T11:48:13.906Z,45.4
2017-06-19T11:49:22.870Z,45.69
2017-06-19T11:50:31.834Z,45.11
2017-06-19T11:51:40.799Z,45.21
2017-06-19T11:52:50.061Z,45.11
2017-06-19T11:53:59.019Z,45.01
2017-06-19T11:55:07.985Z,45.11
2017-06-19T11:56:16.944Z,45.01
2017-06-19T11:57:25.903Z,44.92
2017-06-19T11:58:35.438Z,44.53
2017-06-19T11:59:44.401Z,45.01
2017-06-19T12:00:53.380Z,44.72
2017-06-19T12:02:02.345Z,44.62
2017-06-19T12:03:11.308Z,44.53
2017-06-19T12:04:20.569Z,44.33
2017-06-19T12:05:29.535Z,44.53
2017-06-19T12:06:38.500Z,44.33
2017-06-19T12:07:47.468Z,44.53
2017-06-19T12:08:56.440Z,44.62
2017-06-19T12:10:05.659Z,45.01
2017-06-19T12:11:14.637Z,44.72
2017-06-19T12:12:23.602Z,44.92
2017-06-19T12:13:32.567Z,45.11
2017-06-19T12:14:41.534Z,44.92
2017-06-19T12:15:51.068Z,45.21
2017-06-19T12:17:00.032Z,44.82
2017-06-19T12:18:08.999Z,44.92
2017-06-19T12:19:17.968Z,44.82
2017-06-19T12:20:26.930Z,44.62
2017-06-19T12:21:36.197Z,45.11
2017-06-19T12:22:45.159Z,45.01
2017-06-19T12:23:54.132Z,45.11
2017-06-19T12:25:03.099Z,44.43
2017-06-19T12:26:12.265Z,44.33
2017-06-19T12:27:21.737Z,44.14
2017-06-19T12:28:30.713Z,44.35
2017-06-19T12:29:39.684Z,44.16
2017-06-19T12:30:48.650Z,44.16
2017-06-19T12:31:57.617Z,44.26
2017-06-19T12:33:06.832Z,44.16
2017-06-19T12:34:15.804Z,44.06
2017-06-19T12:35:24.769Z,43.48
2017-06-19T12:36:33.744Z,43.67
2017-06-19T12:37:42.710Z,43.67
2017-06-19T12:38:51.976Z,43.38
2017-06-19T12:40:00.945Z,43.58
2017-06-19T12:41:09.909Z,43.67
2017-06-19T12:42:18.874Z,43.58
2017-06-19T12:43:27.842Z,43.67
2017-06-19T12:44:37.110Z,43.87
2017-06-19T12:45:46.071Z,44.16
2017-06-19T12:46:55.038Z,44.16
2017-06-19T12:48:04.008Z,44.16
2017-06-19T12:49:13.061Z,43.87
2017-06-19T12:50:22.326Z,44.35
2017-06-19T12:51:31.293Z,44.45
2017-06-19T12:52:40.257Z,44.16
2017-06-19T12:53:49.217Z,44.26
2017-06-19T12:54:58.509Z,44.45
2017-06-19T12:56:07.729Z,44.35
2017-06-19T12:57:16.695Z,44.45
2017-06-19T12:58:25.660Z,44.26
2017-06-19T12:59:34.661Z,44.26
2017-06-19T13:00:43.710Z,44.45
2017-06-19T13:01:52.925Z,44.55
2017-06-19T13:03:01.888Z,44.26
2017-06-19T13:04:10.855Z,43.77
2017-06-19T13:05:19.820Z,43.77
2017-06-19T13:06:28.798Z,44.26
2017-06-19T13:07:38.063Z,44.26
2017-06-19T13:08:47.026Z,44.16
2017-06-19T13:09:56.079Z,44.45
2017-06-19T13:11:05.046Z,44.65
2017-06-19T13:12:14.011Z,45.01
2017-06-19T13:13:23.234Z,45.11
2017-06-19T13:14:32.195Z,45.69
2017-06-19T13:15:41.155Z,45.6
2017-06-19T13:16:50.121Z,45.5
2017-06-19T13:17:59.103Z,45.79
2017-06-19T13:19:08.641Z,45.6
2017-06-19T13:20:17.613Z,46.28
2017-06-19T13:21:26.585Z,46.08
2017-06-19T13:22:35.562Z,45.79
2017-06-19T13:23:44.528Z,45.6
2017-06-19T13:24:53.803Z,45.6
2017-06-19T13:26:02.768Z,45.6
2017-06-19T13:27:11.737Z,45.31
2017-06-19T13:28:20.701Z,45.21
2017-06-19T13:29:29.665Z,45.01
2017-06-19T13:30:38.879Z,44.65
2017-06-19T13:31:47.931Z,44.24
2017-06-19T13:32:56.909Z,44.33
2017-06-19T13:34:06.209Z,44.65
2017-06-19T13:35:15.176Z,44.55
2017-06-19T13:36:24.764Z,43.96
2017-06-19T13:37:33.733Z,44.26
2017-06-19T13:38:42.695Z,43.87
2017-06-19T13:39:51.660Z,43.96
2017-06-19T13:41:00.717Z,43.58
2017-06-19T13:42:09.940Z,43.67
2017-06-19T13:43:18.903Z,43.67
2017-06-19T13:44:27.865Z,43.48
2017-06-19T13:45:36.832Z,43.38
2017-06-19T13:46:45.800Z,43.58
2017-06-19T13:47:55.011Z,43.48
2017-06-19T13:49:03.973Z,43.48
2017-06-19T13:50:12.938Z,43.29
2017-06-19T13:51:21.904Z,43.19
2017-06-19T13:52:30.870Z,43.87
2017-06-19T13:53:40.134Z,43.67
2017-06-19T13:54:49.097Z,43.48
2017-06-19T13:55:58.060Z,43.48
2017-06-19T13:57:07.029Z,43.48
2017-06-19T13:58:15.992Z,43.19
2017-06-19T13:59:25.207Z,43.4
2017-06-19T14:00:34.172Z,43.29
2017-06-19T14:01:43.136Z,43.3
2017-06-19T14:02:52.101Z,43.11
2017-06-19T14:04:01.069Z,42.7
2017-06-19T14:05:10.286Z,42.91
2017-06-19T14:06:19.336Z,42.9
2017-06-19T14:07:28.299Z,42.91
2017-06-19T14:08:37.267Z,43.01
2017-06-19T14:09:46.232Z,43.3
2017-06-19T14:10:55.502Z,43.01
2017-06-19T14:12:04.473Z,43.11
2017-06-19T14:13:13.440Z,43.3
2017-06-19T14:14:22.401Z,43.3
2017-06-19T14:15:31.364Z,42.91
2017-06-19T14:16:40.581Z,42.04
2017-06-19T14:17:49.545Z,42.24
2017-06-19T14:18:58.512Z,42.63
2017-06-19T14:20:07.479Z,42.63
2017-06-19T14:21:16.530Z,42.72
2017-06-19T14:22:25.750Z,42.14
2017-06-19T14:23:34.716Z,42.53
2017-06-19T14:24:44.004Z,42.63
2017-06-19T14:25:52.964Z,42.53
2017-06-19T14:27:02.108Z,42.53
2017-06-19T14:28:11.384Z,42.21
2017-06-19T14:29:20.350Z,42.24
2017-06-19T14:30:29.316Z,42.53
2017-06-19T14:31:38.285Z,42.24
2017-06-19T14:32:47.247Z,42.99
2017-06-19T14:33:56.468Z,42.53
2017-06-19T14:35:05.433Z,42.53
2017-06-19T14:36:14.404Z,42.63
2017-06-19T14:37:23.374Z,42.9
2017-06-19T14:38:32.335Z,42.63
2017-06-19T14:39:41.550Z,43.19
2017-06-19T14:40:50.519Z,43.87
2017-06-19T14:41:59.484Z,43.29
2017-06-19T14:43:08.537Z,43.96
2017-06-19T14:44:17.501Z,43.95
2017-06-19T14:45:26.772Z,44.16
2017-06-19T14:46:35.735Z,44.24
2017-06-19T14:47:44.697Z,44.24
2017-06-19T14:48:53.655Z,44.33
2017-06-19T14:50:02.616Z,44.33
2017-06-19T14:51:11.830Z,44.14